Time,TemperatureF,DewpointF,PressureIn,WindDirection,WindDirectionDegrees,WindSpeedMPH,WindSpeedGustMPH,Humidity,HourlyPrecipIn,Conditions,Clouds,dailyrainin,SoftwareType,DateUTC
2013-01-08 00:00:00,80.1,76.2,29.95,ENE,67,7.0,16.0,88,0.00,,,0.00,WeatherDisplay:10.37,2013-01-08 06:00:00,
2013-01-08 00:15:00,80.0,76.1,29.95,ENE,59,7.0,15.0,88,0.00,,,0.00,WeatherDisplay:10.37,2013-01-08 06:15:00,
2013-01-08 00:30:00,79.9,76.0,29.95,ENE,66,8.0,15.0,88,0.00,,,0.00,WeatherDisplay:10.37,2013-01-08 06:30:00,
2013-01-08 00:45:00,79.5,75.6,29.95,ENE,64,7.0,14.0,88,0.00,,,0.00,WeatherDisplay:10.37,2013-01-08 06:45:00,
2013-01-08 01:00:00,79.7,76.2,29.94,NE,55,7.0,12.0,89,0.00,,,0.00,WeatherDisplay:10.37,2013-01-08 07:00:00,
2013-01-08 01:15:00,79.7,76.2,29.94,ENE,59,7.0,14.0,89,0.00,,,0.00,WeatherDisplay:10.37,2013-01-08 07:15:00,
2013-01-08 01:30:00,79.6,76.1,29.94,ENE,70,10.0,16.0,89,0.00,,,0.00,WeatherDisplay:10.37,2013-01-08 07:30:00,
2013-01-08 01:45:00,79.6,76.4,29.93,ENE,72,9.0,17.0,90,0.00,,,0.00,WeatherDisplay:10.37,2013-01-08 07:45:00,
2013-01-08 02:00:00,79.6,76.4,29.92,ENE,77,9.0,15.0,90,0.00,,,0.00,WeatherDisplay:10.37,2013-01-08 08:00:00,
2013-01-08 02:15:00,79.5,76.3,29.92,ENE,75,10.0,17.0,90,0.00,,,0.00,WeatherDisplay:10.37,2013-01-08 08:15:00,
2013-01-08 02:30:00,79.6,76.4,29.92,ENE,69,10.0,17.0,90,0.00,,,0.00,WeatherDisplay:10.37,2013-01-08 08:30:00,
2013-01-08 02:45:00,79.7,76.2,29.92,ENE,70,7.0,17.0,89,0.00,,,0.00,WeatherDisplay:10.37,2013-01-08 08:45:00,
2013-01-08 03:00:00,79.6,76.1,29.92,ENE,71,10.0,18.0,89,0.00,,,0.00,WeatherDisplay:10.37,2013-01-08 09:00:00,
2013-01-08 03:15:00,79.6,76.0,29.92,ENE,66,7.0,14.0,89,0.00,,,0.00,WeatherDisplay:10.37,2013-01-08 09:15:00,
2013-01-08 03:30:00,79.4,75.5,29.93,ENE,67,8.0,14.0,88,0.00,,,0.00,WeatherDisplay:10.37,2013-01-08 09:30:00,
2013-01-08 03:45:00,79.5,76.0,29.93,ENE,70,8.0,13.0,89,0.00,,,0.00,WeatherDisplay:10.37,2013-01-08 09:45:00,
2013-01-08 04:00:00,79.1,75.9,29.92,ENE,71,8.0,18.0,90,0.02,RA,,0.02,WeatherDisplay:10.37,2013-01-08 10:00:00,
2013-01-08 04:15:00,77.8,74.3,29.93,East,85,16.0,24.0,89,0.00,,,0.02,WeatherDisplay:10.37,2013-01-08 10:15:00,
2013-01-08 04:30:00,77.5,74.3,29.93,ENE,65,9.0,20.0,90,0.00,,,0.02,WeatherDisplay:10.37,2013-01-08 10:30:00,
2013-01-08 04:45:00,77.6,74.1,29.93,NE,53,6.0,14.0,89,0.00,,,0.02,WeatherDisplay:10.37,2013-01-08 10:45:00,
2013-01-08 05:00:00,77.8,74.6,29.94,ENE,60,6.0,13.0,90,0.00,,,0.02,WeatherDisplay:10.37,2013-01-08 11:00:00,
2013-01-08 05:15:00,77.9,74.4,29.94,NE,51,6.0,12.0,89,0.00,,,0.02,WeatherDisplay:10.37,2013-01-08 11:15:00,
2013-01-08 05:30:00,78.0,74.5,29.94,NE,38,5.0,10.0,89,0.00,,,0.02,WeatherDisplay:10.37,2013-01-08 11:30:00,
2013-01-08 05:45:00,78.7,75.8,29.94,ENE,66,9.0,18.0,91,0.00,,,0.02,WeatherDisplay:10.37,2013-01-08 11:45:00,
2013-01-08 06:00:00,78.9,76.0,29.95,ENE,71,10.0,17.0,91,0.00,,,0.02,WeatherDisplay:10.37,2013-01-08 12:00:00,
2013-01-08 06:15:00,78.9,76.1,29.96,ENE,68,10.0,17.0,91,0.00,,,0.02,WeatherDisplay:10.37,2013-01-08 12:15:00,
2013-01-08 06:30:00,79.0,76.1,29.96,ENE,70,9.0,16.0,91,0.00,,,0.02,WeatherDisplay:10.37,2013-01-08 12:30:00,
2013-01-08 06:45:00,79.2,76.3,29.97,ENE,73,10.0,17.0,91,0.00,,,0.02,WeatherDisplay:10.37,2013-01-08 12:45:00,
2013-01-08 07:00:00,79.5,76.3,29.97,East,80,14.0,20.0,90,0.00,,,0.02,WeatherDisplay:10.37,2013-01-08 13:00:00,
2013-01-08 07:15:00,79.9,76.3,29.98,ENE,78,12.0,20.0,89,0.00,,,0.02,WeatherDisplay:10.37,2013-01-08 13:15:00,
2013-01-08 07:30:00,81.0,77.1,29.99,East,79,12.0,20.0,88,0.00,,,0.02,WeatherDisplay:10.37,2013-01-08 13:30:00,
2013-01-08 07:45:00,80.7,76.4,30.00,ENE,71,9.0,16.0,87,0.00,,,0.02,WeatherDisplay:10.37,2013-01-08 13:45:00,
2013-01-08 08:00:00,81.7,76.7,30.00,ENE,72,13.0,18.0,85,0.00,,,0.02,WeatherDisplay:10.37,2013-01-08 14:00:00,
2013-01-08 08:15:00,82.4,77.4,30.01,ENE,69,8.0,17.0,85,0.00,CLR,,0.02,WeatherDisplay:10.37,2013-01-08 14:15:00,
2013-01-08 08:30:00,83.2,78.2,30.01,ENE,61,7.0,15.0,85,0.00,CLR,,0.02,WeatherDisplay:10.37,2013-01-08 14:30:00,
2013-01-08 08:45:00,82.2,77.2,30.01,ENE,64,7.0,14.0,85,0.00,,,0.02,WeatherDisplay:10.37,2013-01-08 14:45:00,
2013-01-08 09:00:00,83.5,78.5,30.01,ENE,60,6.0,13.0,85,0.00,,,0.02,WeatherDisplay:10.37,2013-01-08 15:00:00,
2013-01-08 09:15:00,85.1,79.7,30.01,ENE,64,6.0,12.0,84,0.00,CLR,,0.02,WeatherDisplay:10.37,2013-01-08 15:15:00,
2013-01-08 09:30:00,83.6,77.5,30.01,East,81,13.0,18.0,82,0.00,CLR,,0.02,WeatherDisplay:10.37,2013-01-08 15:30:00,
2013-01-08 09:45:00,84.1,77.6,30.01,East,87,10.0,20.0,81,0.00,CLR,,0.02,WeatherDisplay:10.37,2013-01-08 15:45:00,
2013-01-08 10:00:00,83.8,77.7,30.01,East,82,10.0,20.0,82,0.00,CLR,,0.02,WeatherDisplay:10.37,2013-01-08 16:00:00,
2013-01-08 10:15:00,83.8,77.3,30.00,East,82,14.0,20.0,81,0.00,CLR,,0.02,WeatherDisplay:10.37,2013-01-08 16:15:00,
2013-01-08 10:30:00,82.2,76.5,30.00,ENE,77,13.0,21.0,83,0.00,CLR,,0.02,WeatherDisplay:10.37,2013-01-08 16:30:00,
2013-01-08 10:45:00,82.4,77.1,30.00,ENE,72,8.0,20.0,84,0.00,CLR,,0.02,WeatherDisplay:10.37,2013-01-08 16:45:00,
2013-01-08 11:00:00,83.5,77.8,30.00,ENE,78,10.0,20.0,83,0.00,CLR,,0.02,WeatherDisplay:10.37,2013-01-08 17:00:00,
2013-01-08 11:15:00,84.2,78.1,30.00,ENE,70,8.0,17.0,82,0.00,CLR,,0.02,WeatherDisplay:10.37,2013-01-08 17:15:00,
2013-01-08 11:30:00,83.2,77.4,29.99,NE,56,5.0,14.0,83,0.01,RA,,0.03,WeatherDisplay:10.37,2013-01-08 17:30:00,
2013-01-08 11:45:00,82.2,77.5,29.98,East,86,7.0,18.0,86,0.00,,,0.03,WeatherDisplay:10.37,2013-01-08 17:45:00,
2013-01-08 12:00:00,82.9,78.2,29.97,East,92,7.0,16.0,86,0.00,,,0.03,WeatherDisplay:10.37,2013-01-08 18:00:00,
2013-01-08 12:15:00,82.4,77.0,29.97,East,86,10.0,21.0,84,0.00,,,0.03,WeatherDisplay:10.37,2013-01-08 18:15:00,
2013-01-08 12:30:00,82.5,76.4,29.96,East,85,14.0,20.0,82,0.00,CLR,,0.03,WeatherDisplay:10.37,2013-01-08 18:30:00,
2013-01-08 12:45:00,82.6,76.6,29.95,East,85,14.0,20.0,82,0.00,CLR,,0.03,WeatherDisplay:10.37,2013-01-08 18:45:00,
2013-01-08 13:00:00,82.7,77.0,29.95,East,81,13.0,18.0,83,0.00,CLR,,0.03,WeatherDisplay:10.37,2013-01-08 19:00:00,
2013-01-08 13:15:00,81.5,76.5,29.95,East,85,10.0,18.0,85,0.04,RA,,0.07,WeatherDisplay:10.37,2013-01-08 19:15:00,
2013-01-08 13:30:00,81.3,77.1,29.94,ENE,59,6.0,20.0,87,0.00,,,0.07,WeatherDisplay:10.37,2013-01-08 19:30:00,
2013-01-08 13:45:00,82.1,77.1,29.95,East,82,14.0,18.0,85,0.00,,,0.07,WeatherDisplay:10.37,2013-01-08 19:45:00,
2013-01-08 14:00:00,82.0,77.0,29.94,East,79,15.0,20.0,85,0.00,,,0.07,WeatherDisplay:10.37,2013-01-08 20:00:00,
2013-01-08 14:15:00,82.0,76.6,29.93,ENE,76,12.0,20.0,84,0.00,CLR,,0.07,WeatherDisplay:10.37,2013-01-08 20:15:00,
2013-01-08 14:30:00,82.3,76.6,29.93,ENE,73,12.0,18.0,83,0.00,CLR,,0.07,WeatherDisplay:10.37,2013-01-08 20:30:00,
2013-01-08 14:45:00,82.4,76.7,29.92,ENE,76,10.0,20.0,83,0.00,CLR,,0.07,WeatherDisplay:10.37,2013-01-08 20:45:00,
2013-01-08 15:00:00,82.6,76.9,29.93,ENE,69,7.0,17.0,83,0.00,CLR,,0.07,WeatherDisplay:10.37,2013-01-08 21:00:00,
2013-01-08 15:15:00,82.5,76.8,29.93,ENE,68,8.0,17.0,83,0.00,CLR,,0.07,WeatherDisplay:10.37,2013-01-08 21:15:00,
2013-01-08 15:30:00,82.7,77.0,29.93,ENE,66,8.0,15.0,83,0.00,CLR,,0.07,WeatherDisplay:10.37,2013-01-08 21:30:00,
2013-01-08 15:45:00,82.3,76.3,29.93,ENE,71,10.0,17.0,82,0.00,CLR,,0.07,WeatherDisplay:10.37,2013-01-08 21:45:00,
2013-01-08 16:00:00,82.2,76.5,29.92,ENE,71,8.0,17.0,83,0.00,CLR,,0.07,WeatherDisplay:10.37,2013-01-08 22:00:00,
2013-01-08 16:15:00,81.9,76.2,29.92,ENE,68,9.0,17.0,83,0.00,CLR,,0.07,WeatherDisplay:10.37,2013-01-08 22:15:00,
2013-01-08 16:26:00,81.8,76.1,29.93,ENE,71,10.0,17.0,83,0.00,CLR,,0.07,WeatherDisplay:10.37,2013-01-08 22:26:00,
2013-01-08 16:45:00,81.5,76.6,29.93,ENE,73,8.0,17.0,85,0.00,CLR,,0.07,WeatherDisplay:10.37,2013-01-08 22:45:00,
2013-01-08 17:00:00,81.3,76.3,29.93,ENE,69,14.0,17.0,85,0.00,,,0.07,WeatherDisplay:10.37,2013-01-08 23:00:00,
2013-01-08 17:15:00,80.9,76.0,29.93,ENE,74,10.0,20.0,85,0.00,,,0.07,WeatherDisplay:10.37,2013-01-08 23:15:00,
2013-01-08 17:30:00,80.9,75.9,29.93,ENE,77,13.0,20.0,85,0.00,,,0.07,WeatherDisplay:10.37,2013-01-08 23:30:00,
2013-01-08 17:45:00,80.8,76.2,29.93,East,82,14.0,21.0,86,0.00,,,0.07,WeatherDisplay:10.37,2013-01-08 23:45:00,
2013-01-08 18:00:00,80.7,76.1,29.93,East,86,12.0,21.0,86,0.00,,,0.07,WeatherDisplay:10.37,2013-01-09 00:00:00,
2013-01-08 18:15:00,80.8,76.2,29.94,East,89,8.0,20.0,86,0.00,,,0.07,WeatherDisplay:10.37,2013-01-09 00:15:00,
2013-01-08 18:30:00,80.7,76.1,29.94,East,90,10.0,20.0,86,0.00,,,0.07,WeatherDisplay:10.37,2013-01-09 00:30:00,
2013-01-08 18:45:00,80.8,76.2,29.94,East,92,7.0,20.0,86,0.00,,,0.07,WeatherDisplay:10.37,2013-01-09 00:45:00,
2013-01-08 19:00:00,80.8,76.5,29.94,East,90,15.0,20.0,87,0.00,,,0.07,WeatherDisplay:10.37,2013-01-09 01:00:00,
2013-01-08 19:15:00,80.7,76.5,29.94,East,93,10.0,20.0,87,0.00,,,0.07,WeatherDisplay:10.37,2013-01-09 01:15:00,
2013-01-08 19:30:00,80.7,76.5,29.94,East,89,15.0,21.0,87,0.00,,,0.07,WeatherDisplay:10.37,2013-01-09 01:30:00,
2013-01-08 19:45:00,80.8,76.5,29.94,East,88,10.0,20.0,87,0.00,,,0.07,WeatherDisplay:10.37,2013-01-09 01:45:00,
2013-01-08 20:00:00,80.8,76.6,29.95,ESE,106,12.0,20.0,87,0.00,,,0.07,WeatherDisplay:10.37,2013-01-09 02:00:00,
2013-01-08 20:15:00,80.7,76.5,29.94,ESE,104,8.0,20.0,87,0.00,,,0.07,WeatherDisplay:10.37,2013-01-09 02:15:00,
2013-01-08 20:30:00,80.6,76.0,29.95,ESE,108,14.0,20.0,86,0.00,,,0.07,WeatherDisplay:10.37,2013-01-09 02:30:00,
2013-01-08 20:45:00,80.6,76.4,29.95,ESE,105,9.0,18.0,87,0.00,,,0.07,WeatherDisplay:10.37,2013-01-09 02:45:00,
2013-01-08 21:00:00,80.6,76.4,29.95,ESE,102,8.0,15.0,87,0.00,,,0.07,WeatherDisplay:10.37,2013-01-09 03:00:00,
2013-01-08 21:15:00,80.7,76.8,29.95,East,100,8.0,15.0,88,0.00,,,0.07,WeatherDisplay:10.37,2013-01-09 03:15:00,
2013-01-08 21:30:00,80.6,77.0,29.95,ESE,103,9.0,16.0,89,0.00,,,0.07,WeatherDisplay:10.37,2013-01-09 03:30:00,
2013-01-08 21:45:00,80.6,76.7,29.96,East,101,9.0,20.0,88,0.00,,,0.07,WeatherDisplay:10.37,2013-01-09 03:45:00,
2013-01-08 22:00:00,80.7,76.8,29.96,ESE,104,10.0,20.0,88,0.00,,,0.07,WeatherDisplay:10.37,2013-01-09 04:00:00,
2013-01-08 22:15:00,80.6,77.1,29.96,ESE,102,12.0,16.0,89,0.00,,,0.07,WeatherDisplay:10.37,2013-01-09 04:15:00,
2013-01-08 22:30:00,80.7,77.5,29.96,ESE,106,9.0,18.0,90,0.00,,,0.07,WeatherDisplay:10.37,2013-01-09 04:30:00,
2013-01-08 22:45:00,80.6,77.1,29.95,ESE,104,9.0,20.0,89,0.00,,,0.07,WeatherDisplay:10.37,2013-01-09 04:45:00,
2013-01-08 23:00:00,80.6,77.4,29.95,ESE,106,13.0,17.0,90,0.00,,,0.07,WeatherDisplay:10.37,2013-01-09 05:00:00,
2013-01-08 23:15:00,80.7,77.5,29.94,ESE,109,13.0,20.0,90,0.00,,,0.07,WeatherDisplay:10.37,2013-01-09 05:15:00,
2013-01-08 23:30:00,80.6,77.1,29.94,ESE,108,13.0,21.0,89,0.00,,,0.07,WeatherDisplay:10.37,2013-01-09 05:30:00,
2013-01-08 23:45:00,80.5,77.0,29.94,ESE,109,16.0,21.0,89,0.00,,,0.07,WeatherDisplay:10.37,2013-01-09 05:45:00,